Time;durP1;ratioP1;P1;durP2;ratioP2;P2;SDS_P1;SDS_P2;PMS_P1;PMS_P2;Temp;Humidity;BMP_temperature;BMP_pressure;BME280_temperature;BME280_humidity;BME280_pressure;Samples;Min_cycle;Max_cycle;Signal;HPM_P1;HPM_P2
2022/01/04 00:00:12;;;;;;;10.63;3.50;;;;;;;7.99;89.28;100081.16;5000728;28;20117;-83
2022/01/04 00:02:37;;;;;;;12.75;4.10;;;;;;;7.99;89.04;100072.28;4999124;28;20374;-83
2022/01/04 00:05:04;;;;;;;11.02;3.67;;;;;;;7.98;89.52;100082.16;4990640;28;20034;-83
2022/01/04 00:07:30;;;;;;;10.25;3.63;;;;;;;7.96;89.26;100065.34;4990392;28;20026;-83
2022/01/04 00:09:55;;;;;;;12.38;3.45;;;;;;;7.95;89.45;100060.09;4989624;28;20042;-83
2022/01/04 00:15:06;;;;;;;14.15;3.85;;;;;;;7.91;89.55;100055.97;4996811;28;20180;-83
2022/01/04 00:17:32;;;;;;;11.02;3.15;;;;;;;7.91;89.65;100054.16;4992786;28;20034;-83
2022/01/04 00:19:57;;;;;;;11.00;3.53;;;;;;;7.90;89.75;100047.09;4997554;28;20500;-83
2022/01/04 00:22:22;;;;;;;13.02;3.72;;;;;;;7.88;89.44;100041.84;4995158;28;20045;-83
2022/01/04 00:24:48;;;;;;;10.45;3.53;;;;;;;7.88;89.43;100047.19;4990101;28;20141;-83
2022/01/04 00:27:13;;;;;;;9.93;3.45;;;;;;;7.87;89.30;100033.94;4991360;28;20233;-83
2022/01/04 00:29:38;;;;;;;12.48;4.07;;;;;;;7.88;89.34;100031.16;4989149;28;20037;-84
2022/01/04 00:32:04;;;;;;;10.30;3.42;;;;;;;7.86;89.26;100014.38;4992451;28;20030;-83
2022/01/04 00:34:29;;;;;;;10.93;3.50;;;;;;;7.87;89.67;100008.03;4995241;28;20033;-83
2022/01/04 00:36:55;;;;;;;12.02;3.55;;;;;;;7.84;89.55;100002.91;4989721;28;20205;-83
2022/01/04 00:39:20;;;;;;;8.57;2.90;;;;;;;7.83;89.64;99995.00;4988968;28;20030;-83
2022/01/04 00:41:46;;;;;;;11.20;3.38;;;;;;;7.82;89.62;99986.13;4991160;28;20046;-82
2022/01/04 00:44:11;;;;;;;13.30;3.67;;;;;;;7.81;89.52;99980.91;4995456;28;20026;-83
2022/01/04 00:46:36;;;;;;;12.68;4.00;;;;;;;7.77;89.89;99979.44;4989506;28;20467;-83
2022/01/04 00:49:11;;;;;;;13.32;4.05;;;;;;;7.76;89.95;99988.41;4988422;28;20038;-83
2022/01/04 00:51:54;;;;;;;12.60;3.85;;;;;;;7.78;89.93;99975.78;4989388;28;20382;-83
2022/01/04 00:54:21;;;;;;;13.20;3.78;;;;;;;7.78;90.11;99978.47;4989905;28;20045;-83
2022/01/04 00:56:47;;;;;;;10.20;3.40;;;;;;;7.76;90.03;99972.34;4989586;28;20030;-83
2022/01/04 00:59:14;;;;;;;12.95;4.15;;;;;;;7.78;89.97;99975.78;4992567;28;20034;-83
2022/01/04 01:01:39;;;;;;;11.15;3.50;;;;;;;7.76;89.85;99964.34;4991466;28;20045;-83
2022/01/04 01:04:06;;;;;;;10.43;3.72;;;;;;;7.75;89.82;99954.63;4991505;28;20602;-83
2022/01/04 01:06:32;;;;;;;13.02;4.18;;;;;;;7.73;89.92;99956.53;4994928;28;20026;-83
2022/01/04 01:08:57;;;;;;;13.43;4.10;;;;;;;7.72;90.00;99949.47;4995071;28;20564;-83
2022/01/04 01:11:23;;;;;;;11.30;4.05;;;;;;;7.71;89.77;99954.00;4995539;28;20037;-83
2022/01/04 01:13:48;;;;;;;14.15;3.78;;;;;;;7.69;89.90;99953.25;4995526;28;20139;-83
2022/01/04 01:16:14;;;;;;;9.82;3.92;;;;;;;7.69;90.04;99958.63;4996271;28;20128;-83
2022/01/04 01:18:39;;;;;;;12.30;3.75;;;;;;;7.68;90.16;99960.41;5003803;28;20038;-83
2022/01/04 01:21:06;;;;;;;13.75;3.97;;;;;;;7.67;89.76;99955.19;4990437;28;20042;-84
2022/01/04 01:23:33;;;;;;;11.50;3.35;;;;;;;7.68;89.71;99954.22;4991720;28;20474;-83
2022/01/04 01:25:58;;;;;;;12.10;3.92;;;;;;;7.67;90.08;99948.03;4999103;28;20037;-83
2022/01/04 01:28:24;;;;;;;14.25;4.45;;;;;;;7.67;90.10;99945.38;5010732;28;20541;-83
2022/01/04 01:30:50;;;;;;;13.05;4.00;;;;;;;7.67;89.74;99940.00;4990825;28;20184;-83
2022/01/04 01:33:16;;;;;;;16.77;4.57;;;;;;;7.66;89.96;99934.78;4994158;28;20034;-84
2022/01/04 01:35:42;;;;;;;13.15;4.47;;;;;;;7.64;89.95;99932.22;4997243;28;20033;-84
2022/01/04 01:38:09;;;;;;;11.88;4.15;;;;;;;7.63;90.01;99924.31;4989160;28;20451;-83
2022/01/04 01:40:36;;;;;;;16.55;4.30;;;;;;;7.62;89.84;99928.78;4998586;28;20025;-83
2022/01/04 01:43:01;;;;;;;11.85;3.65;;;;;;;7.61;90.11;99916.38;5008659;28;20431;-83
2022/01/04 01:45:27;;;;;;;12.20;4.20;;;;;;;7.60;89.90;99911.16;4991566;28;20044;-83
2022/01/04 01:47:53;;;;;;;17.67;5.05;;;;;;;7.59;89.97;99913.00;5009732;28;20112;-83
2022/01/04 01:50:20;;;;;;;17.30;4.72;;;;;;;7.60;89.97;99912.03;4990822;28;20122;-83
2022/01/04 01:52:48;;;;;;;14.63;4.05;;;;;;;7.62;90.09;99904.72;4994844;28;20472;-83
2022/01/04 01:55:15;;;;;;;13.90;4.43;;;;;;;7.61;89.79;99916.38;5014852;28;20029;-83
2022/01/04 01:57:40;;;;;;;17.65;4.57;;;;;;;7.61;89.89;99904.84;4993550;28;20044;-83
2022/01/04 02:00:07;;;;;;;14.35;4.93;;;;;;;7.61;89.80;99916.38;4998682;28;20397;-83
2022/01/04 02:02:33;;;;;;;15.18;4.57;;;;;;;7.58;89.80;99913.09;4990615;28;20072;-84
2022/01/04 02:04:58;;;;;;;14.50;4.38;;;;;;;7.57;90.02;99909.59;4990088;28;20061;-84
2022/01/04 02:07:24;;;;;;;16.63;5.13;;;;;;;7.57;89.91;99898.03;4990748;28;20030;-85
2022/01/04 02:10:03;;;;;;;17.10;5.35;;;;;;;7.57;89.84;99895.34;4990603;28;20112;-84
2022/01/04 02:12:30;;;;;;;17.73;4.47;;;;;;;7.55;89.57;99878.59;5009851;28;20112;-84
2022/01/04 02:14:56;;;;;;;16.77;5.00;;;;;;;7.55;90.07;99882.09;5008648;28;20680;-84
2022/01/04 02:17:21;;;;;;;16.05;4.78;;;;;;;7.53;89.88;99874.19;4996537;28;20125;-84
2022/01/04 02:19:47;;;;;;;14.68;4.78;;;;;;;7.51;90.22;99868.13;4998143;28;20029;-84
2022/01/04 02:22:12;;;;;;;18.80;4.93;;;;;;;7.49;89.85;99864.69;4994660;28;20030;-84
2022/01/04 02:24:37;;;;;;;18.35;5.78;;;;;;;7.49;89.72;99858.50;4990513;28;20104;-84
2022/01/04 02:27:03;;;;;;;17.08;4.97;;;;;;;7.51;89.77;99859.22;4991200;28;20088;-84
2022/01/04 02:29:28;;;;;;;15.15;4.68;;;;;;;7.50;89.87;99860.22;4990383;28;20036;-84
2022/01/04 02:31:53;;;;;;;18.55;5.18;;;;;;;7.46;89.58;99862.25;4993610;28;20375;-84
2022/01/04 02:34:19;;;;;;;20.08;5.30;;;;;;;7.47;89.41;99861.31;4998188;28;20036;-84
2022/01/04 02:36:44;;;;;;;16.85;5.30;;;;;;;7.47;89.82;99855.97;4990751;28;20775;-84
2022/01/04 02:39:10;;;;;;;16.30;5.20;;;;;;;7.48;89.98;99856.78;4990422;28;20026;-85
2022/01/04 02:41:35;;;;;;;17.30;4.88;;;;;;;7.48;89.67;99859.47;4994684;28;20030;-84
2022/01/04 02:44:00;;;;;;;15.75;4.65;;;;;;;7.49;89.90;99855.84;4992129;28;20053;-83
2022/01/04 02:46:26;;;;;;;18.52;5.25;;;;;;;7.47;90.18;99837.25;4993697;28;20037;-84
2022/01/04 02:48:51;;;;;;;13.95;4.47;;;;;;;7.49;89.57;99845.97;4995016;28;20397;-84
2022/01/04 02:51:18;;;;;;;15.75;5.30;;;;;;;7.50;89.47;99838.84;4997359;28;20118;-84
2022/01/04 02:53:44;;;;;;;16.95;5.22;;;;;;;7.49;89.30;99842.47;4993770;28;20061;-85
2022/01/04 02:56:10;;;;;;;18.30;5.90;;;;;;;7.47;89.34;99833.72;4994292;28;20082;-84
2022/01/04 02:58:36;;;;;;;17.15;5.90;;;;;;;7.47;89.26;99820.34;4996396;28;20029;-84
2022/01/04 03:01:02;;;;;;;16.50;5.60;;;;;;;7.43;89.18;99822.41;4996872;28;20501;-84
2022/01/04 03:03:28;;;;;;;17.00;4.93;;;;;;;7.41;89.09;99813.66;5018964;28;20065;-84
2022/01/04 03:05:53;;;;;;;14.93;5.10;;;;;;;7.40;89.40;99817.28;5011917;28;20435;-84
2022/01/04 03:08:19;;;;;;;16.02;5.15;;;;;;;7.40;89.20;99813.78;4995833;28;20062;-84
2022/01/04 03:10:44;;;;;;;18.08;5.22;;;;;;;7.40;89.43;99811.09;5005719;28;20060;-85
2022/01/04 03:13:10;;;;;;;17.90;4.55;;;;;;;7.39;89.27;99796.88;5008421;28;20122;-84
2022/01/04 03:15:35;;;;;;;15.68;4.82;;;;;;;7.37;89.25;99793.47;5011627;28;20421;-84
2022/01/04 03:18:01;;;;;;;15.55;4.68;;;;;;;7.38;89.35;99792.50;5017753;28;20117;-84
2022/01/04 03:20:26;;;;;;;19.30;4.53;;;;;;;7.37;89.20;99789.97;4996764;28;20332;-84
2022/01/04 03:22:51;;;;;;;15.60;3.95;;;;;;;7.39;89.26;99782.66;4994210;28;20346;-85
2022/01/04 03:25:16;;;;;;;14.50;4.38;;;;;;;7.39;88.97;99769.28;5011253;28;20061;-84
2022/01/04 03:27:42;;;;;;;15.05;4.00;;;;;;;7.38;89.34;99767.59;4996485;28;20045;-85
2022/01/04 03:30:08;;;;;;;13.82;4.57;;;;;;;7.37;89.06;99760.56;5011463;28;20099;-84
2022/01/04 03:32:33;;;;;;;12.75;4.55;;;;;;;7.39;89.37;99755.94;5001214;28;20034;-83
2022/01/04 03:34:58;;;;;;;15.02;3.92;;;;;;;7.39;89.30;99750.59;4993170;28;20722;-85
2022/01/04 03:37:23;;;;;;;13.50;4.72;;;;;;;7.34;89.56;99740.25;4992067;28;20029;-85
2022/01/04 03:39:49;;;;;;;15.52;4.18;;;;;;;7.34;89.20;99743.75;4999093;28;20033;-85
2022/01/04 03:42:14;;;;;;;16.25;4.95;;;;;;;7.33;89.12;99731.38;4999263;28;20038;-84
2022/01/04 03:44:39;;;;;;;16.20;4.82;;;;;;;7.32;89.29;99729.69;5009539;28;20458;-85
2022/01/04 03:47:05;;;;;;;17.20;4.88;;;;;;;7.32;89.38;99723.47;5010203;28;20084;-85
2022/01/04 03:49:30;;;;;;;17.52;5.28;;;;;;;7.33;89.38;99723.34;5001005;28;20040;-85
2022/01/04 03:51:56;;;;;;;16.58;4.90;;;;;;;7.31;89.40;99711.09;4995522;28;20022;-84
2022/01/04 03:54:22;;;;;;;14.98;5.18;;;;;;;7.30;89.17;99699.53;4996214;28;20535;-85
2022/01/04 03:56:48;;;;;;;16.13;4.70;;;;;;;7.28;89.43;99700.66;4997558;28;20022;-84
2022/01/04 03:59:14;;;;;;;15.50;4.65;;;;;;;7.28;89.64;99696.13;4997667;28;20485;-85
2022/01/04 04:01:39;;;;;;;16.80;4.78;;;;;;;7.29;89.58;99694.31;5011481;28;20044;-85
2022/01/04 04:04:04;;;;;;;15.88;5.15;;;;;;;7.27;89.41;99694.44;5020887;28;20026;-85
2022/01/04 04:06:30;;;;;;;15.57;4.97;;;;;;;7.28;89.47;99680.09;5011269;28;20121;-85
2022/01/04 04:08:56;;;;;;;16.75;5.72;;;;;;;7.27;89.58;99673.06;4994885;28;20046;-85
2022/01/04 04:11:25;;;;;;;20.25;5.32;;;;;;;7.28;89.82;99674.75;4993466;28;20029;-85
2022/01/04 04:13:50;;;;;;;17.98;5.47;;;;;;;7.27;89.66;99683.75;4993018;28;20109;-85
2022/01/04 04:16:16;;;;;;;19.13;5.50;;;;;;;7.26;89.68;99671.38;5010494;28;20439;-85
2022/01/04 04:18:42;;;;;;;18.50;6.07;;;;;;;7.26;90.03;99660.69;4995883;28;20071;-85
2022/01/04 04:21:07;;;;;;;21.02;6.20;;;;;;;7.29;89.77;99665.78;4993356;28;20029;-85
2022/01/04 04:23:32;;;;;;;17.35;6.32;;;;;;;7.27;89.89;99650.84;4994198;28;20040;-85
2022/01/04 04:25:58;;;;;;;20.25;7.05;;;;;;;7.23;90.04;99638.69;4992686;28;20033;-85
2022/01/04 04:28:23;;;;;;;19.52;5.88;;;;;;;7.22;90.02;99640.50;5012647;28;20057;-84
2022/01/04 04:30:48;;;;;;;17.50;5.95;;;;;;;7.24;89.94;99641.22;5006049;28;20224;-85
2022/01/04 04:33:14;;;;;;;17.73;5.18;;;;;;;7.23;90.26;99644.84;4993480;28;20100;-85
2022/01/04 04:35:39;;;;;;;21.00;6.65;;;;;;;7.23;89.75;99642.19;4994745;28;20115;-84
2022/01/04 04:38:06;;;;;;;17.95;6.30;;;;;;;7.23;89.79;99644.84;4992980;28;20032;-85
2022/01/04 04:40:32;;;;;;;20.40;6.57;;;;;;;7.26;90.30;99641.09;4993031;28;20033;-85
2022/01/04 04:42:57;;;;;;;20.02;6.60;;;;;;;7.24;90.11;99633.22;4992254;28;20041;-85
2022/01/04 04:45:23;;;;;;;20.25;6.00;;;;;;;7.24;90.02;99635.88;4997097;28;20033;-85
2022/01/04 04:47:48;;;;;;;20.95;5.93;;;;;;;7.25;89.89;99632.25;4992144;28;20045;-85
2022/01/04 04:50:13;;;;;;;19.15;6.20;;;;;;;7.25;89.98;99636.75;4992760;28;20489;-85
2022/01/04 04:52:39;;;;;;;17.40;6.32;;;;;;;7.21;89.86;99640.63;5001932;28;20164;-85
2022/01/04 04:55:05;;;;;;;18.88;6.47;;;;;;;7.22;89.88;99643.19;4993019;28;20116;-84
2022/01/04 04:57:31;;;;;;;18.58;6.90;;;;;;;7.22;90.08;99642.31;4992643;28;20038;-85
2022/01/04 04:59:56;;;;;;;21.27;7.22;;;;;;;7.22;89.80;99631.63;4994032;28;20108;-85
2022/01/04 05:02:21;;;;;;;18.25;6.32;;;;;;;7.22;90.14;99632.50;4991293;28;20036;-87
2022/01/04 05:04:46;;;;;;;18.65;6.15;;;;;;;7.22;89.95;99632.50;5016276;28;20025;-86
2022/01/04 05:07:12;;;;;;;21.85;6.72;;;;;;;7.22;90.09;99632.50;5002290;28;20025;-84
2022/01/04 05:09:37;;;;;;;19.55;6.75;;;;;;;7.20;89.89;99631.75;4992634;28;20045;-84
2022/01/04 05:12:05;;;;;;;19.55;6.28;;;;;;;7.19;90.03;99627.41;4992348;28;20041;-85
2022/01/04 05:14:31;;;;;;;19.75;7.13;;;;;;;7.20;90.06;99622.88;4996272;28;20021;-85
2022/01/04 05:16:56;;;;;;;21.40;7.75;;;;;;;7.23;90.00;99622.63;5017565;28;20367;-85
2022/01/04 05:19:21;;;;;;;20.50;7.13;;;;;;;7.25;90.02;99613.53;4995180;28;20053;-84
2022/01/04 05:21:46;;;;;;;19.75;7.25;;;;;;;7.24;89.66;99625.19;4997650;28;20116;-85
2022/01/04 05:24:12;;;;;;;18.60;6.50;;;;;;;7.25;90.23;99615.38;5013419;28;20092;-85
2022/01/04 05:26:37;;;;;;;20.02;6.55;;;;;;;7.24;90.75;99605.66;4992724;28;20026;-85
2022/01/04 05:29:03;;;;;;;21.65;7.45;;;;;;;7.23;91.12;99610.13;4995433;28;20442;-85
2022/01/04 05:31:29;;;;;;;21.08;7.53;;;;;;;7.22;91.47;99613.78;4997159;28;20348;-84
2022/01/04 05:33:54;;;;;;;20.25;7.22;;;;;;;7.20;91.98;99606.84;4997183;28;20051;-85
2022/01/04 05:36:19;;;;;;;20.20;7.90;;;;;;;7.18;92.33;99593.63;4992832;28;20486;-85
2022/01/04 05:38:44;;;;;;;21.92;8.10;;;;;;;7.19;92.83;99584.63;4993189;28;20092;-84
2022/01/04 05:41:10;;;;;;;20.20;7.60;;;;;;;7.17;92.53;99576.75;4990919;28;20041;-85
2022/01/04 05:43:35;;;;;;;19.65;7.72;;;;;;;7.14;92.82;99576.97;4991009;28;20390;-85
2022/01/04 05:46:01;;;;;;;19.10;6.65;;;;;;;7.13;93.10;99574.41;5019762;28;20041;-84
2022/01/04 05:48:27;;;;;;;21.92;7.00;;;;;;;7.10;93.03;99575.53;5003080;28;20029;-85
2022/01/04 05:50:52;;;;;;;23.05;8.35;;;;;;;7.10;93.03;99574.66;4993024;28;20022;-85
2022/01/04 05:53:18;;;;;;;20.73;7.10;;;;;;;7.11;93.15;99571.03;4991184;28;20548;-84
2022/01/04 05:55:43;;;;;;;19.23;7.65;;;;;;;7.10;93.13;99578.22;4993464;28;20500;-84
2022/01/04 05:58:09;;;;;;;17.40;6.60;;;;;;;7.10;93.28;99580.88;5016828;28;20033;-85
2022/01/04 06:00:34;;;;;;;19.13;6.78;;;;;;;7.08;93.40;99574.78;4993287;28;20021;-85
2022/01/04 06:03:01;;;;;;;18.80;6.05;;;;;;;7.09;93.43;99572.97;5010744;28;20107;-85
2022/01/04 06:05:29;;;;;;;20.88;7.30;;;;;;;7.10;93.61;99575.53;4998972;28;20026;-84
2022/01/04 06:07:55;;;;;;;19.50;6.70;;;;;;;7.09;93.64;99564.97;5005583;28;20054;-84
2022/01/04 06:10:21;;;;;;;20.10;7.28;;;;;;;7.09;94.08;99562.28;4994843;28;20062;-84
2022/01/04 06:15:14;;;;;;;19.63;7.40;;;;;;;7.05;93.96;99560.84;5009425;28;20041;-84
2022/01/04 06:17:45;;;;;;;20.42;7.22;;;;;;;7.06;93.71;99563.38;4992602;28;20046;-84
2022/01/04 06:20:13;;;;;;;20.33;8.13;;;;;;;7.03;94.24;99555.63;5013258;28;20057;-85
2022/01/04 06:22:39;;;;;;;19.38;7.20;;;;;;;7.04;94.12;99557.28;5023320;28;20041;-84
2022/01/04 06:25:06;;;;;;;22.63;8.15;;;;;;;7.04;94.22;99554.63;5012049;28;20040;-85
2022/01/04 06:27:32;;;;;;;20.52;7.57;;;;;;;7.02;94.32;99545.91;5013497;28;20034;-85
2022/01/04 06:29:58;;;;;;;22.00;8.00;;;;;;;7.04;94.51;99548.44;4995694;28;20030;-85
2022/01/04 06:32:23;;;;;;;18.80;7.60;;;;;;;7.04;94.50;99553.78;5000339;28;20088;-84
2022/01/04 06:34:50;;;;;;;18.55;6.85;;;;;;;7.02;94.18;99556.56;4999609;28;20475;-84
2022/01/04 06:37:16;;;;;;;19.20;7.80;;;;;;;7.02;94.61;99555.75;4998117;28;20037;-84
2022/01/04 06:39:42;;;;;;;20.67;7.38;;;;;;;7.03;94.50;99541.38;5009550;28;20067;-84
2022/01/04 06:42:09;;;;;;;19.85;8.18;;;;;;;7.03;94.62;99541.38;4999295;28;20381;-84
2022/01/04 06:44:34;;;;;;;22.05;8.00;;;;;;;7.03;94.87;99555.63;4994312;28;20375;-84
2022/01/04 06:47:00;;;;;;;19.85;8.30;;;;;;;7.03;94.69;99549.41;5012210;28;20037;-84
2022/01/04 06:49:25;;;;;;;21.08;7.90;;;;;;;7.04;94.50;99543.94;5017012;28;20043;-84
2022/01/04 06:51:50;;;;;;;20.60;8.18;;;;;;;7.04;94.92;99533.25;4994905;28;20084;-84
2022/01/04 06:54:18;;;;;;;20.80;7.47;;;;;;;7.02;94.41;99527.19;5001754;28;20030;-84
2022/01/04 06:56:44;;;;;;;23.80;8.93;;;;;;;6.99;94.14;99528.28;5019138;28;20136;-85
2022/01/04 06:59:10;;;;;;;19.48;7.20;;;;;;;6.98;94.68;99518.59;4995777;28;20116;-84
2022/01/04 07:01:36;;;;;;;20.08;7.15;;;;;;;6.98;94.72;99525.72;5000905;28;20624;-85
2022/01/04 07:04:03;;;;;;;19.98;7.78;;;;;;;6.98;94.60;99523.94;5013496;28;20036;-85
2022/01/04 07:06:28;;;;;;;21.50;7.60;;;;;;;6.99;94.83;99533.63;4994614;28;20559;-84
2022/01/04 07:08:53;;;;;;;21.02;8.48;;;;;;;6.99;95.02;99519.44;4995473;28;20177;-85
2022/01/04 07:11:19;;;;;;;22.17;8.25;;;;;;;6.99;94.67;99508.75;4994670;28;20033;-85
2022/01/04 07:13:44;;;;;;;25.73;8.77;;;;;;;6.98;94.90;99502.56;5018580;28;20488;-85
2022/01/04 07:16:10;;;;;;;22.98;8.70;;;;;;;6.97;94.85;99500.00;5007504;28;20041;-85
2022/01/04 07:18:36;;;;;;;22.33;9.32;;;;;;;6.97;94.87;99505.34;5001534;28;20033;-84
2022/01/04 07:21:02;;;;;;;21.17;8.48;;;;;;;6.96;94.75;99509.84;4993446;28;20040;-84
2022/01/04 07:23:28;;;;;;;22.65;8.82;;;;;;;6.96;94.79;99514.34;5005000;28;20038;-84
2022/01/04 07:25:54;;;;;;;21.35;9.05;;;;;;;6.95;94.43;99505.44;4993223;28;20030;-84
2022/01/04 07:28:20;;;;;;;23.58;9.43;;;;;;;6.93;94.62;99498.56;4994027;28;20022;-85
2022/01/04 07:30:45;;;;;;;22.63;10.18;;;;;;;6.94;94.61;99495.75;5000358;28;20044;-84
2022/01/04 07:33:11;;;;;;;22.38;8.88;;;;;;;6.91;94.97;99485.31;5020128;28;20030;-84
2022/01/04 07:35:36;;;;;;;19.05;8.38;;;;;;;6.92;95.10;99480.81;4999103;28;20033;-85
2022/01/04 07:38:01;;;;;;;21.15;8.90;;;;;;;6.90;95.37;99467.59;4995664;28;20121;-85
2022/01/04 07:40:26;;;;;;;22.58;9.65;;;;;;;6.90;94.93;99454.25;5002346;28;20068;-84
2022/01/04 07:42:53;;;;;;;23.73;9.38;;;;;;;6.86;94.84;99458.13;4993226;28;20079;-84
2022/01/04 07:45:19;;;;;;;23.30;9.77;;;;;;;6.86;95.19;99473.31;5020751;28;20038;-85
2022/01/04 07:47:44;;;;;;;21.80;8.20;;;;;;;6.83;94.98;99472.56;4995725;28;20049;-85
2022/01/04 07:50:11;;;;;;;22.73;9.48;;;;;;;6.84;95.26;99481.44;5013020;28;20069;-84
2022/01/04 07:52:36;;;;;;;22.70;8.90;;;;;;;6.85;95.41;99480.44;5009984;28;20049;-85
2022/01/04 07:55:03;;;;;;;22.75;10.63;;;;;;;6.82;95.25;99492.25;5013035;28;20025;-85
2022/01/04 07:57:28;;;;;;;24.75;10.07;;;;;;;6.83;95.32;99485.06;4993595;28;20026;-84
2022/01/04 07:59:53;;;;;;;24.27;10.88;;;;;;;6.82;95.54;99494.06;4996170;28;20117;-84
2022/01/04 08:02:19;;;;;;;24.85;10.00;;;;;;;6.84;95.25;99486.78;4998242;28;20036;-85
2022/01/04 08:04:44;;;;;;;24.90;10.25;;;;;;;6.87;95.73;99486.53;4997187;28;20026;-85
2022/01/04 08:07:09;;;;;;;25.13;10.88;;;;;;;6.89;95.32;99481.91;4993453;28;20062;-85
2022/01/04 08:09:34;;;;;;;25.73;10.85;;;;;;;6.90;95.01;99486.28;5011586;28;20107;-84
2022/01/04 08:12:00;;;;;;;23.35;10.40;;;;;;;6.95;95.32;99483.25;4993709;28;20034;-84
2022/01/04 08:14:25;;;;;;;23.27;10.10;;;;;;;6.94;94.65;99479.72;5000389;28;20021;-85
2022/01/04 08:16:51;;;;;;;25.70;10.38;;;;;;;6.96;94.84;99483.13;4992766;28;20033;-84
2022/01/04 08:19:16;;;;;;;25.63;10.45;;;;;;;6.94;95.04;99481.53;5015784;28;20053;-84
2022/01/04 08:21:41;;;;;;;24.23;11.35;;;;;;;6.95;94.66;99491.25;4992920;28;20052;-85
2022/01/04 08:24:07;;;;;;;26.83;10.77;;;;;;;6.97;94.63;99494.69;4996056;28;20457;-85
2022/01/04 08:26:32;;;;;;;25.35;11.13;;;;;;;6.97;94.97;99489.34;4999174;28;20033;-84
2022/01/04 08:28:58;;;;;;;25.00;11.63;;;;;;;6.98;94.67;99483.88;5010163;28;20042;-85
2022/01/04 08:31:23;;;;;;;28.20;11.38;;;;;;;7.01;94.82;99493.44;5001851;28;20065;-85
2022/01/04 08:33:49;;;;;;;24.17;11.07;;;;;;;7.03;94.91;99491.50;4996373;28;20024;-85
2022/01/04 08:36:15;;;;;;;26.20;11.98;;;;;;;7.02;94.51;99483.63;5011168;28;20029;-84
2022/01/04 08:38:40;;;;;;;25.40;11.32;;;;;;;7.02;94.58;99488.97;5011791;28;20094;-85
2022/01/04 08:41:05;;;;;;;25.83;11.57;;;;;;;7.03;94.47;99498.66;4999578;28;20104;-85
2022/01/04 08:43:31;;;;;;;24.98;11.27;;;;;;;7.03;94.60;99512.00;5025359;28;20084;-84
2022/01/04 08:45:57;;;;;;;23.67;11.52;;;;;;;7.06;94.56;99522.44;5002028;28;20033;-85
2022/01/04 08:48:22;;;;;;;25.10;11.10;;;;;;;7.06;94.42;99525.13;5009986;28;20111;-85
2022/01/04 08:50:48;;;;;;;24.83;11.27;;;;;;;7.08;94.59;99518.69;4991894;28;20037;-85
2022/01/04 08:53:14;;;;;;;25.63;12.57;;;;;;;7.09;94.45;99533.75;4994444;28;20022;-85
2022/01/04 08:55:39;;;;;;;22.38;10.73;;;;;;;7.08;94.26;99532.03;4992876;28;20033;-85
2022/01/04 08:58:06;;;;;;;25.92;11.45;;;;;;;7.10;94.29;99531.91;5007295;28;20025;-85
2022/01/04 09:00:31;;;;;;;25.80;12.75;;;;;;;7.10;94.29;99532.78;4997421;28;20040;-85
2022/01/04 09:02:57;;;;;;;26.20;11.38;;;;;;;7.10;94.28;99531.91;4996652;28;20033;-84
2022/01/04 09:05:22;;;;;;;24.83;12.82;;;;;;;7.11;93.86;99514.91;4991970;28;20390;-85
2022/01/04 09:07:47;;;;;;;25.88;12.55;;;;;;;7.14;93.84;99502.16;4994563;28;20033;-85
2022/01/04 09:10:13;;;;;;;27.90;12.88;;;;;;;7.17;94.12;99501.94;5001161;28;20390;-84
2022/01/04 09:12:51;;;;;;;25.58;11.65;;;;;;;7.18;93.47;99508.94;4998667;28;20038;-78
2022/01/04 09:15:33;;;;;;;26.13;12.00;;;;;;;7.21;93.68;99510.53;5021487;28;20071;-78
2022/01/04 09:20:46;;;;;;;27.55;13.20;;;;;;;7.28;94.26;99502.88;5008655;28;20072;-78
2022/01/04 09:23:18;;;;;;;28.02;12.30;;;;;;;7.29;93.59;99494.75;5006630;28;20044;-79
2022/01/04 09:25:44;;;;;;;30.10;12.75;;;;;;;7.34;93.13;99510.41;5013005;28;20474;-78
2022/01/04 09:28:09;;;;;;;25.58;12.38;;;;;;;7.34;93.65;99524.59;5012296;28;20104;-78
2022/01/04 09:30:34;;;;;;;26.92;12.48;;;;;;;7.35;93.50;99526.31;5015306;28;20051;-78
2022/01/04 09:33:00;;;;;;;26.20;12.32;;;;;;;7.37;93.62;99530.69;5014216;28;20029;-78
2022/01/04 09:35:25;;;;;;;27.65;13.45;;;;;;;7.37;93.39;99533.34;5005145;28;20104;-78
2022/01/04 09:37:51;;;;;;;28.23;13.38;;;;;;;7.39;93.26;99534.91;5005064;28;20025;-78
2022/01/04 09:40:16;;;;;;;29.98;13.43;;;;;;;7.38;92.77;99524.34;4987954;28;20029;-78
2022/01/04 09:42:42;;;;;;;31.27;14.60;;;;;;;7.40;93.16;99533.94;4988800;28;20417;-79
2022/01/04 09:45:08;;;;;;;31.95;13.80;;;;;;;7.41;93.26;99529.44;4986683;28;20076;-78
2022/01/04 09:47:34;;;;;;;28.83;14.68;;;;;;;7.41;93.27;99526.75;5008860;28;21306;-78
2022/01/04 09:49:59;;;;;;;28.73;15.90;;;;;;;7.41;92.76;99530.31;4986617;28;20097;-78
2022/01/04 09:52:24;;;;;;;27.77;14.15;;;;;;;7.44;93.09;99534.56;4986607;28;20018;-78
2022/01/04 09:54:53;;;;;;;28.85;15.93;;;;;;;7.43;92.07;99527.50;4987606;28;20018;-78
2022/01/04 09:57:19;;;;;;;31.27;15.30;;;;;;;7.43;92.29;99517.66;5004384;28;20410;-78
2022/01/04 09:59:44;;;;;;;26.30;14.20;;;;;;;7.43;92.49;99514.16;4989130;28;20026;-78
2022/01/04 10:02:15;;;;;;;29.85;16.20;;;;;;;7.44;92.65;99514.00;5020220;28;20044;-78
2022/01/04 10:04:41;;;;;;;30.17;15.57;;;;;;;7.46;92.81;99527.25;5015660;28;20026;-78
2022/01/04 10:07:07;;;;;;;34.08;17.42;;;;;;;7.48;92.83;99517.28;4990899;28;20129;-78
2022/01/04 10:09:45;;;;;;;32.63;16.10;;;;;;;7.51;92.59;99515.22;4987968;28;20050;-78
2022/01/04 10:12:19;;;;;;;29.63;15.38;;;;;;;7.50;92.46;99518.84;5013840;28;20398;-78
2022/01/04 10:14:50;;;;;;;30.73;17.17;;;;;;;7.55;92.58;99502.44;4994135;28;20105;-78
2022/01/04 10:17:27;;;;;;;30.15;17.45;;;;;;;7.58;92.61;99499.50;5014532;28;20032;-78
2022/01/04 10:19:54;;;;;;;33.08;16.63;;;;;;;7.62;92.36;99495.59;4986077;28;20112;-78
2022/01/04 10:22:25;;;;;;;34.80;16.52;;;;;;;7.63;91.85;99483.94;4993984;28;20533;-78
2022/01/04 10:25:09;;;;;;;31.85;17.67;;;;;;;7.67;92.01;99496.09;4992317;28;20025;-78
2022/01/04 10:27:48;;;;;;;33.30;18.60;;;;;;;7.66;92.35;99494.38;5014505;28;20103;-78
2022/01/04 10:30:33;;;;;;;33.87;17.27;;;;;;;7.70;91.94;99487.81;4983858;28;20025;-78
2022/01/04 10:33:04;;;;;;;33.13;17.70;;;;;;;7.72;92.28;99484.13;4986252;28;20049;-78
2022/01/04 10:35:35;;;;;;;31.02;16.90;;;;;;;7.74;91.99;99491.06;4989977;28;20061;-78
2022/01/04 10:38:08;;;;;;;36.22;18.00;;;;;;;7.77;91.70;99481.94;5006888;28;20107;-78
2022/01/04 10:40:33;;;;;;;35.20;16.40;;;;;;;7.78;91.47;99483.66;4982808;28;20121;-78
2022/01/04 10:43:27;;;;;;;30.52;17.10;;;;;;;7.81;91.47;99488.72;5011279;28;20025;-78
2022/01/04 10:45:52;;;;;;;37.65;18.73;;;;;;;7.82;91.90;99487.75;4995404;28;20083;-78
2022/01/04 10:48:26;;;;;;;31.30;16.27;;;;;;;7.84;91.25;99489.31;5016605;28;20034;-78
2022/01/04 10:51:07;;;;;;;35.28;19.02;;;;;;;7.86;90.47;99481.16;5004155;28;20473;-78
2022/01/04 10:53:35;;;;;;;29.90;16.90;;;;;;;7.91;90.94;99489.66;5005392;28;20025;-78
2022/01/04 10:56:07;;;;;;;30.35;17.75;;;;;;;7.92;91.61;99479.78;4996736;28;20458;-78
2022/01/04 10:58:37;;;;;;;33.03;16.90;;;;;;;7.90;90.69;99490.63;5007145;28;20386;-78
2022/01/04 11:01:19;;;;;;;33.45;17.75;;;;;;;7.93;91.34;99487.69;5006495;28;20072;-78
2022/01/04 11:03:51;;;;;;;34.55;18.73;;;;;;;7.91;90.67;99489.66;4988090;28;20164;-78
2022/01/04 11:06:24;;;;;;;34.47;17.83;;;;;;;7.93;90.99;99479.66;4999587;28;20561;-78
2022/01/04 11:08:50;;;;;;;33.20;18.85;;;;;;;7.96;91.18;99475.88;5006729;28;20481;-78
2022/01/04 11:11:15;;;;;;;33.05;18.10;;;;;;;7.95;91.53;99472.38;4994707;28;20040;-78
2022/01/04 11:13:41;;;;;;;38.03;18.58;;;;;;;7.94;90.80;99468.00;5010778;28;20603;-78
2022/01/04 11:16:07;;;;;;;31.95;17.13;;;;;;;7.96;91.13;99471.38;5007308;28;20180;-78
2022/01/04 11:18:33;;;;;;;34.60;19.75;;;;;;;7.96;90.74;99465.19;4990420;28;20029;-78
2022/01/04 11:20:59;;;;;;;28.90;17.27;;;;;;;7.98;90.70;99464.09;5006879;28;20029;-78
2022/01/04 11:23:28;;;;;;;34.65;19.42;;;;;;;7.99;90.59;99468.44;4994889;28;20074;-78
2022/01/04 11:25:55;;;;;;;33.40;18.73;;;;;;;8.02;91.23;99470.88;5007817;28;20474;-78
2022/01/04 11:28:21;;;;;;;36.05;19.52;;;;;;;8.03;91.04;99483.25;4999278;28;20029;-78
2022/01/04 11:31:09;;;;;;;33.15;20.30;;;;;;;8.02;90.27;99484.25;4992317;28;20149;-78
2022/01/04 11:34:06;;;;;;;33.67;18.85;;;;;;;8.05;90.48;99478.63;5009108;28;20048;-78
2022/01/04 11:36:36;;;;;;;34.60;19.00;;;;;;;8.04;90.82;99486.81;5006839;28;20068;-78